Time;durP1;ratioP1;P1;durP2;ratioP2;P2;SDS_P1;SDS_P2;PMS_P1;PMS_P2;Temp;Humidity;BMP_temperature;BMP_pressure;BME280_temperature;BME280_humidity;BME280_pressure;Samples;Min_cycle;Max_cycle;Signal;HPM_P1;HPM_P2
2023/01/17 02:06:38;;;;;;;5.10;2.90;;;;;;;-0.13;81.12;99285.36;80205;1299;3012927;-61
2023/01/17 02:09:07;;;;;;;11.00;5.10;;;;;;;0.84;78.68;99285.14;78045;1300;3053745;-62
2023/01/17 02:11:35;;;;;;;10.00;4.00;;;;;;;1.56;75.53;99287.48;79353;1301;3013342;-63
2023/01/17 02:14:02;;;;;;;10.00;5.30;;;;;;;1.73;73.99;99289.81;79050;1296;3012289;-63
2023/01/17 02:16:58;;;;;;;11.60;4.90;;;;;;;1.72;73.92;99289.48;78007;1301;3068390;-63
2023/01/17 02:20:03;;;;;;;10.70;4.40;;;;;;;1.52;73.75;99287.09;77061;1301;3050461;-62
2023/01/17 02:22:44;;;;;;;11.70;4.80;;;;;;;1.24;74.27;99282.27;78202;1298;3056465;-64
2023/01/17 02:25:36;;;;;;;10.20;4.70;;;;;;;1.11;74.75;99281.75;78250;1295;3049486;-64
2023/01/17 02:28:22;;;;;;;11.80;4.80;;;;;;;1.05;75.18;99281.90;78223;1297;3053949;-63
2023/01/17 02:30:53;;;;;;;10.30;4.80;;;;;;;0.96;75.42;99275.73;78208;1297;3049771;-64
2023/01/17 02:34:05;;;;;;;9.70;5.10;;;;;;;0.88;75.41;99273.69;79495;1295;3013153;-63
2023/01/17 02:36:35;;;;;;;10.40;5.20;;;;;;;0.82;75.74;99274.16;77807;1300;3052011;-64
2023/01/17 02:39:08;;;;;;;10.30;5.00;;;;;;;0.85;75.65;99264.97;78952;1302;3014137;-63
2023/01/17 02:41:39;;;;;;;10.80;5.20;;;;;;;0.74;75.82;99264.36;77876;1296;3050212;-62
2023/01/17 02:44:09;;;;;;;12.00;5.50;;;;;;;0.77;75.80;99258.61;79526;1296;3011933;-64
2023/01/17 02:46:45;;;;;;;10.10;4.70;;;;;;;0.78;75.78;99254.27;78289;1298;3050053;-62
2023/01/17 02:49:15;;;;;;;10.50;5.80;;;;;;;0.67;76.00;99254.36;79024;1296;3013441;-63
2023/01/17 02:52:05;;;;;;;11.20;5.40;;;;;;;0.63;75.97;99250.67;79526;1295;3020629;-63
2023/01/17 02:54:59;;;;;;;11.40;5.10;;;;;;;0.64;76.30;99244.77;78297;1298;3052596;-63
2023/01/17 02:57:51;;;;;;;10.00;4.90;;;;;;;0.63;76.29;99240.66;78267;1298;3052272;-62
2023/01/17 03:00:34;;;;;;;8.90;4.50;;;;;;;0.70;76.10;99242.73;78322;1296;3069604;-64
2023/01/17 03:03:32;;;;;;;9.50;4.90;;;;;;;0.63;75.84;99240.65;78203;1298;3051629;-65
2023/01/17 03:06:10;;;;;;;8.30;4.00;;;;;;;0.62;76.09;99244.64;78040;1295;3056520;-63
2023/01/17 03:08:40;;;;;;;8.40;4.70;;;;;;;0.59;76.30;99241.77;78351;1297;3049964;-62
2023/01/17 03:11:10;;;;;;;9.60;4.60;;;;;;;0.59;76.44;99243.32;79504;1294;3013106;-64
2023/01/17 03:13:40;;;;;;;5.60;2.80;;;;;;;0.62;76.27;99242.92;78131;1299;3049826;-64
2023/01/17 03:16:17;;;;;;;6.30;3.20;;;;;;;1.20;75.28;99241.31;79471;1298;3014732;-64
2023/01/17 03:18:45;;;;;;;7.10;3.20;;;;;;;1.99;72.28;99241.58;78236;1298;3069399;-65
2023/01/17 03:21:12;;;;;;;7.70;3.90;;;;;;;2.20;71.13;99243.89;79399;1298;3012841;-63
2023/01/17 03:23:38;;;;;;;8.80;4.10;;;;;;;2.11;70.67;99244.52;79455;1295;3012041;-63
2023/01/17 03:26:06;;;;;;;11.40;4.50;;;;;;;2.00;71.16;99243.29;78175;1298;3027799;-65
2023/01/17 03:28:33;;;;;;;8.70;3.90;;;;;;;1.78;71.50;99242.19;79552;1298;3013500;-63
2023/01/17 03:31:00;;;;;;;8.40;4.50;;;;;;;1.59;72.06;99242.36;79475;1298;3011912;-64
2023/01/17 03:33:28;;;;;;;8.50;4.60;;;;;;;1.43;72.36;99243.14;78266;1298;3068238;-63
2023/01/17 03:35:56;;;;;;;8.80;4.90;;;;;;;1.33;73.06;99233.75;79418;1296;3018643;-64
2023/01/17 03:38:24;;;;;;;8.40;3.80;;;;;;;1.19;73.41;99230.48;79307;1295;3011454;-64
2023/01/17 03:40:52;;;;;;;9.90;5.10;;;;;;;1.16;73.68;99230.73;78174;1297;3053950;-63
2023/01/17 03:43:19;;;;;;;9.70;4.70;;;;;;;1.04;74.09;99224.30;79473;1298;3013351;-64
2023/01/17 03:45:50;;;;;;;10.50;5.00;;;;;;;0.98;74.28;99222.56;79458;1298;3013327;-64
2023/01/17 03:48:19;;;;;;;8.70;4.40;;;;;;;0.86;74.78;99224.23;78168;1298;3067521;-63
2023/01/17 03:50:50;;;;;;;8.50;5.00;;;;;;;0.81;75.20;99228.16;79461;1295;3014824;-64
2023/01/17 03:53:18;;;;;;;9.50;5.10;;;;;;;0.79;75.45;99226.14;78163;1296;3050265;-63
2023/01/17 03:55:45;;;;;;;10.20;5.70;;;;;;;0.76;75.54;99225.67;79403;1298;3013342;-63
2023/01/17 03:58:11;;;;;;;11.30;5.20;;;;;;;0.72;75.57;99223.20;79412;1295;3011596;-63
2023/01/17 04:00:39;;;;;;;10.00;5.20;;;;;;;0.69;76.06;99217.75;78190;1298;3028581;-64
2023/01/17 04:03:06;;;;;;;12.60;6.40;;;;;;;0.70;75.83;99218.41;79410;1294;3013397;-63
2023/01/17 04:05:34;;;;;;;13.10;5.50;;;;;;;0.62;75.97;99209.14;79400;1295;3012885;-63
2023/01/17 04:08:03;;;;;;;12.40;6.10;;;;;;;0.66;76.43;99210.57;78203;1297;3049413;-62
2023/01/17 04:10:30;;;;;;;11.70;6.00;;;;;;;0.63;76.58;99211.88;79545;1295;3014748;-63
2023/01/17 04:12:56;;;;;;;14.10;6.20;;;;;;;0.63;76.47;99215.32;79381;1296;3011667;-64
2023/01/17 04:15:24;;;;;;;11.60;5.80;;;;;;;0.62;76.59;99211.20;78189;1297;3051854;-63
2023/01/17 04:17:51;;;;;;;14.20;6.20;;;;;;;0.50;77.11;99209.94;79438;1298;3019096;-62
2023/01/17 04:20:34;;;;;;;12.20;6.20;;;;;;;0.52;77.19;99207.83;79463;1296;3013139;-63
2023/01/17 04:23:02;;;;;;;14.80;4.80;;;;;;;0.54;77.15;99203.98;78211;1297;3049836;-62
2023/01/17 04:25:29;;;;;;;15.00;5.70;;;;;;;1.14;76.29;99197.98;79424;1295;3018849;-63
2023/01/17 04:27:57;;;;;;;10.00;4.70;;;;;;;1.79;73.32;99193.61;79428;1295;3012972;-63
2023/01/17 04:30:25;;;;;;;12.50;5.80;;;;;;;1.94;72.55;99190.23;78195;1298;3053295;-64
2023/01/17 04:32:52;;;;;;;12.80;6.00;;;;;;;1.87;71.94;99195.96;79474;1297;3013548;-63
2023/01/17 04:35:19;;;;;;;13.80;6.60;;;;;;;1.76;72.36;99195.97;79404;1297;3011840;-62
2023/01/17 04:37:47;;;;;;;11.70;6.00;;;;;;;1.61;72.74;99195.16;78177;1297;3049257;-63
2023/01/17 04:40:13;;;;;;;13.60;6.90;;;;;;;1.46;72.92;99194.91;79530;1298;3013774;-63
2023/01/17 04:42:40;;;;;;;14.10;6.50;;;;;;;1.36;73.47;99198.11;79408;1297;3011854;-64
2023/01/17 04:45:09;;;;;;;13.50;6.80;;;;;;;1.28;73.72;99201.96;78033;1301;3030515;-64
2023/01/17 04:47:35;;;;;;;16.60;7.30;;;;;;;1.15;74.00;99204.86;79513;1298;3012906;-63
2023/01/17 04:50:03;;;;;;;15.20;6.90;;;;;;;1.05;74.50;99206.18;79389;1294;3012760;-63
2023/01/17 04:52:31;;;;;;;13.80;6.70;;;;;;;1.01;74.61;99205.07;78150;1298;3048873;-64
2023/01/17 04:54:58;;;;;;;12.20;6.60;;;;;;;0.96;74.52;99200.02;79438;1296;3019005;-62
2023/01/17 04:57:30;;;;;;;17.70;6.50;;;;;;;0.89;74.63;99194.02;78960;1298;3013122;-63
2023/01/17 04:59:56;;;;;;;17.00;7.00;;;;;;;0.83;74.84;99189.13;79445;1298;3013092;-62
2023/01/17 05:02:23;;;;;;;15.80;7.70;;;;;;;0.77;75.04;99187.89;79543;1297;3011848;-64
2023/01/17 05:04:52;;;;;;;16.40;7.50;;;;;;;0.73;75.22;99183.19;78217;1298;3025736;-63
2023/01/17 05:07:18;;;;;;;15.10;7.20;;;;;;;0.75;74.95;99183.48;79410;1298;3013111;-63
2023/01/17 05:09:45;;;;;;;14.90;7.60;;;;;;;0.70;75.12;99185.66;79369;1296;3011589;-63
2023/01/17 05:12:12;;;;;;;20.50;8.10;;;;;;;0.68;75.09;99184.52;78203;1298;3028219;-61
2023/01/17 05:14:40;;;;;;;14.50;7.20;;;;;;;0.60;75.23;99188.32;79419;1298;3015209;-62
2023/01/17 05:17:07;;;;;;;20.70;8.20;;;;;;;0.65;75.14;99183.20;79405;1298;3013198;-63
2023/01/17 05:19:35;;;;;;;18.10;8.30;;;;;;;0.49;75.64;99183.57;78164;1298;3050133;-63
2023/01/17 05:22:13;;;;;;;16.30;7.60;;;;;;;0.47;75.59;99180.70;79379;1298;3018569;-63
2023/01/17 05:24:45;;;;;;;20.80;9.30;;;;;;;0.46;75.64;99171.25;78203;1298;3053722;-63
2023/01/17 05:27:12;;;;;;;17.00;8.30;;;;;;;0.39;75.81;99174.52;79368;1296;3013438;-64
2023/01/17 05:29:40;;;;;;;21.10;8.50;;;;;;;0.37;76.17;99175.10;78234;1298;3026000;-63
2023/01/17 05:32:07;;;;;;;17.30;8.20;;;;;;;0.36;76.29;99172.35;79443;1298;3012964;-62
2023/01/17 05:34:35;;;;;;;18.50;8.20;;;;;;;0.43;76.02;99173.90;79399;1295;3011724;-63
2023/01/17 05:37:03;;;;;;;17.00;7.70;;;;;;;0.39;75.91;99179.86;78195;1298;3056346;-62
2023/01/17 05:39:29;;;;;;;18.20;8.10;;;;;;;0.44;75.78;99185.79;79388;1295;3021430;-64
2023/01/17 05:41:57;;;;;;;18.30;8.40;;;;;;;0.42;75.86;99187.90;79460;1295;3011710;-63
2023/01/17 05:44:26;;;;;;;16.40;8.60;;;;;;;0.44;76.05;99184.73;78252;1298;3052937;-62
2023/01/17 05:46:53;;;;;;;18.90;8.30;;;;;;;0.37;75.89;99179.73;79459;1298;3013535;-63
2023/01/17 05:49:20;;;;;;;20.30;8.00;;;;;;;0.36;76.21;99168.40;79382;1295;3013313;-63
2023/01/17 05:51:48;;;;;;;17.80;8.50;;;;;;;0.28;76.45;99169.95;78214;1298;3056595;-63
2023/01/17 05:54:14;;;;;;;19.00;9.00;;;;;;;0.33;76.22;99164.67;79387;1295;3013493;-63
2023/01/17 05:56:41;;;;;;;17.30;8.70;;;;;;;0.36;76.26;99162.02;79491;1295;3012971;-63
2023/01/17 05:59:09;;;;;;;14.90;7.10;;;;;;;0.37;76.30;99165.61;78224;1298;3025590;-62
2023/01/17 06:01:36;;;;;;;16.50;7.30;;;;;;;0.90;75.11;99173.78;79464;1297;3018500;-64
2023/01/17 06:04:02;;;;;;;13.90;6.50;;;;;;;1.63;72.38;99176.13;79422;1295;3011536;-61
2023/01/17 06:06:30;;;;;;;15.90;7.60;;;;;;;1.98;71.11;99171.64;78129;1300;3026547;-63
2023/01/17 06:08:57;;;;;;;19.70;8.50;;;;;;;1.83;70.71;99159.66;79410;1295;3013501;-66
2023/01/17 06:11:25;;;;;;;19.10;9.40;;;;;;;1.65;71.08;99163.46;79268;1296;3011880;-62
2023/01/17 06:13:53;;;;;;;18.90;8.70;;;;;;;1.37;72.08;99169.60;78078;1299;3053240;-63
2023/01/17 06:16:19;;;;;;;19.50;8.40;;;;;;;1.46;72.26;99173.49;79245;1299;3012983;-63
2023/01/17 06:18:46;;;;;;;21.40;9.60;;;;;;;1.28;72.58;99162.44;79307;1298;3011511;-62
2023/01/17 06:21:14;;;;;;;20.40;9.00;;;;;;;1.23;73.00;99165.84;78063;1301;3025710;-64
2023/01/17 06:23:41;;;;;;;18.80;8.90;;;;;;;1.11;73.58;99166.34;79258;1296;3019504;-63
2023/01/17 06:26:08;;;;;;;22.30;9.60;;;;;;;1.04;73.81;99146.69;79266;1295;3012186;-62
2023/01/17 06:28:36;;;;;;;21.80;8.50;;;;;;;0.91;74.14;99145.98;77997;1301;3025290;-63
2023/01/17 06:31:08;;;;;;;20.30;8.60;;;;;;;0.90;74.86;99152.58;79479;1298;3013434;-64
2023/01/17 06:33:37;;;;;;;19.30;8.40;;;;;;;0.89;74.89;99145.36;78174;1298;3051925;-64
2023/01/17 06:36:04;;;;;;;19.50;8.50;;;;;;;0.89;74.94;99149.83;79724;1295;3013233;-62
2023/01/17 06:38:32;;;;;;;17.90;8.80;;;;;;;1.01;74.93;99150.55;79484;1295;3011668;-63
2023/01/17 06:41:03;;;;;;;20.20;8.20;;;;;;;1.04;74.64;99146.51;78205;1298;3049764;-64
2023/01/17 06:43:32;;;;;;;19.40;9.30;;;;;;;1.06;74.62;99144.73;79372;1298;3011666;-61
2023/01/17 06:46:00;;;;;;;18.40;8.80;;;;;;;1.01;75.18;99140.05;78203;1298;3052215;-62
2023/01/17 06:48:27;;;;;;;21.60;8.60;;;;;;;1.01;75.54;99133.83;79359;1297;3013037;-63
2023/01/17 06:50:56;;;;;;;17.00;9.10;;;;;;;1.08;75.46;99134.66;79424;1296;3011641;-62
2023/01/17 06:53:24;;;;;;;18.30;9.20;;;;;;;1.02;75.73;99124.67;78052;1301;3048029;-63
2023/01/17 06:55:51;;;;;;;20.30;8.00;;;;;;;1.04;76.08;99117.02;79405;1295;3012947;-62
2023/01/17 06:58:18;;;;;;;24.10;10.00;;;;;;;1.09;76.22;99117.58;79360;1295;3013105;-63
2023/01/17 07:00:48;;;;;;;20.50;9.30;;;;;;;1.23;76.00;99120.80;78168;1298;3051998;-62
2023/01/17 07:03:20;;;;;;;20.70;10.20;;;;;;;1.22;76.28;99124.29;79314;1298;3013279;-62
2023/01/17 07:05:48;;;;;;;19.10;8.10;;;;;;;1.32;75.79;99128.31;78167;1298;3056214;-64
2023/01/17 07:08:15;;;;;;;21.90;10.00;;;;;;;1.36;75.96;99126.81;79420;1298;3013484;-64
2023/01/17 07:10:43;;;;;;;24.00;11.70;;;;;;;1.20;76.65;99127.45;79462;1295;3012285;-63
2023/01/17 07:13:12;;;;;;;20.70;7.90;;;;;;;1.22;77.45;99126.35;78301;1298;3053843;-62
2023/01/17 07:15:39;;;;;;;14.10;6.80;;;;;;;1.88;75.91;99114.73;79631;1295;3015600;-63
2023/01/17 07:18:06;;;;;;;19.30;9.20;;;;;;;2.38;73.59;99113.88;79321;1296;3013311;-64
2023/01/17 07:20:34;;;;;;;21.80;9.70;;;;;;;2.74;72.95;99114.05;78151;1297;3056877;-64
2023/01/17 07:23:01;;;;;;;22.40;9.40;;;;;;;2.47;73.12;99122.60;79346;1295;3012835;-64
2023/01/17 07:25:33;;;;;;;19.60;9.90;;;;;;;2.40;73.74;99129.73;78278;1298;3049079;-64
2023/01/17 07:27:59;;;;;;;22.80;10.70;;;;;;;2.12;75.20;99119.05;79396;1299;3013263;-64
2023/01/17 07:30:26;;;;;;;22.00;10.30;;;;;;;2.07;75.76;99116.27;79428;1298;3011889;-62
2023/01/17 07:32:54;;;;;;;21.30;10.80;;;;;;;2.04;76.09;99117.37;78108;1300;3028786;-61
2023/01/17 07:35:21;;;;;;;20.70;10.70;;;;;;;1.96;76.84;99130.92;79293;1301;3013665;-63
2023/01/17 07:37:48;;;;;;;26.60;11.40;;;;;;;1.96;76.96;99133.19;79277;1301;3012776;-62
2023/01/17 07:40:17;;;;;;;22.10;10.70;;;;;;;1.90;77.43;99127.84;78151;1298;3026722;-64
2023/01/17 07:42:45;;;;;;;26.00;11.50;;;;;;;1.77;78.32;99127.71;79360;1298;3013230;-63
2023/01/17 07:45:12;;;;;;;25.00;11.10;;;;;;;1.82;78.66;99124.96;79259;1301;3011640;-62
2023/01/17 07:47:40;;;;;;;20.00;10.60;;;;;;;1.88;78.75;99130.66;78182;1301;3051900;-63
2023/01/17 07:50:07;;;;;;;21.60;10.40;;;;;;;1.91;78.63;99130.73;79339;1295;3018522;-63
2023/01/17 07:52:34;;;;;;;24.00;11.60;;;;;;;1.93;78.94;99133.27;79289;1295;3013394;-66
2023/01/17 07:55:06;;;;;;;22.00;9.00;;;;;;;1.98;78.99;99132.79;78102;1300;3050018;-68
2023/01/17 07:57:33;;;;;;;15.20;7.30;;;;;;;2.47;78.00;99124.48;79658;1296;3013372;-65
2023/01/17 08:00:00;;;;;;;19.00;8.90;;;;;;;3.05;75.64;99124.27;79382;1298;3012588;-64
2023/01/17 08:02:28;;;;;;;20.70;10.20;;;;;;;3.21;74.96;99130.61;78078;1300;3050612;-66
2023/01/17 08:04:55;;;;;;;24.50;10.50;;;;;;;3.13;75.03;99137.81;79775;1296;3018176;-66
2023/01/17 08:07:21;;;;;;;23.30;11.30;;;;;;;2.97;75.63;99138.73;79470;1298;3011703;-63
2023/01/17 08:09:49;;;;;;;22.10;10.30;;;;;;;2.81;76.26;99136.16;78185;1297;3027988;-65
2023/01/17 08:12:16;;;;;;;20.70;10.50;;;;;;;2.84;76.44;99137.95;79454;1298;3013077;-66
2023/01/17 08:14:43;;;;;;;20.40;10.60;;;;;;;2.84;76.22;99141.59;79380;1298;3011445;-67
2023/01/17 08:17:15;;;;;;;18.40;10.20;;;;;;;2.58;77.50;99135.52;78228;1298;3052141;-65
2023/01/17 08:19:43;;;;;;;22.40;11.90;;;;;;;2.48;78.49;99135.52;79443;1298;3011546;-64
2023/01/17 08:22:11;;;;;;;25.80;11.50;;;;;;;2.45;78.86;99128.52;78384;1298;3026223;-64
2023/01/17 08:24:37;;;;;;;25.40;11.80;;;;;;;2.36;79.47;99139.35;79454;1298;3013738;-63
2023/01/17 08:27:04;;;;;;;24.40;12.70;;;;;;;2.32;79.99;99146.58;79552;1298;3011681;-64
2023/01/17 08:29:32;;;;;;;17.60;9.20;;;;;;;2.27;80.47;99138.10;78134;1297;3026807;-65
2023/01/17 08:31:58;;;;;;;15.40;8.90;;;;;;;2.80;79.42;99142.93;79425;1297;3018585;-64
2023/01/17 08:34:25;;;;;;;19.80;10.70;;;;;;;3.39;77.01;99146.42;79507;1298;3011582;-65
2023/01/17 08:36:53;;;;;;;22.60;11.20;;;;;;;3.51;75.99;99156.55;78346;1298;3028163;-66
2023/01/17 08:39:20;;;;;;;23.00;11.50;;;;;;;3.39;75.86;99150.40;79581;1299;3013805;-65
2023/01/17 08:41:47;;;;;;;24.40;12.40;;;;;;;3.20;76.63;99152.13;79489;1298;3011696;-64
2023/01/17 08:44:15;;;;;;;23.10;11.50;;;;;;;3.06;77.42;99150.52;78195;1298;3052823;-65
2023/01/17 08:46:42;;;;;;;23.80;12.10;;;;;;;2.95;77.80;99141.21;79541;1295;3018554;-66
2023/01/17 08:49:09;;;;;;;27.00;12.60;;;;;;;2.83;78.63;99134.88;79427;1298;3011603;-67
2023/01/17 08:51:37;;;;;;;28.00;12.30;;;;;;;2.85;79.06;99126.70;78615;1300;3049985;-65
2023/01/17 08:54:03;;;;;;;27.10;12.50;;;;;;;2.84;79.16;99127.23;79497;1293;3012784;-64
2023/01/17 08:56:30;;;;;;;26.20;12.80;;;;;;;2.75;79.46;99128.42;79528;1298;3011545;-63
2023/01/17 08:58:58;;;;;;;25.80;12.90;;;;;;;2.75;79.76;99141.55;78328;1298;3025961;-65
2023/01/17 09:01:25;;;;;;;25.60;12.70;;;;;;;2.84;79.28;99152.33;79733;1298;3013847;-69
2023/01/17 09:03:51;;;;;;;25.10;10.40;;;;;;;2.78;79.57;99147.67;79624;1298;3012791;-66
2023/01/17 09:06:19;;;;;;;14.90;8.30;;;;;;;3.42;78.61;99134.70;78306;1295;3048728;-69
2023/01/17 09:08:48;;;;;;;22.10;9.30;;;;;;;4.02;75.89;99130.05;79642;1296;3013256;-69
2023/01/17 09:11:15;;;;;;;21.30;10.10;;;;;;;4.06;75.14;99127.98;79482;1301;3011250;-69
2023/01/17 09:13:43;;;;;;;21.50;12.00;;;;;;;4.01;75.14;99124.86;78192;1299;3052110;-67
2023/01/17 09:16:10;;;;;;;19.90;10.80;;;;;;;3.89;75.64;99126.88;79419;1298;3014057;-64
2023/01/17 09:18:42;;;;;;;28.90;12.80;;;;;;;3.77;75.96;99121.59;78907;1296;3011729;-64
2023/01/17 09:21:12;;;;;;;24.90;13.20;;;;;;;3.59;76.72;99121.61;79511;1298;3013305;-72
2023/01/17 09:23:41;;;;;;;25.70;11.60;;;;;;;3.35;77.86;99117.98;78305;1301;3051852;-68
2023/01/17 09:26:16;;;;;;;24.10;11.70;;;;;;;3.36;78.08;99117.27;79520;1301;3012681;-73
2023/01/17 09:28:44;;;;;;;28.30;12.80;;;;;;;3.25;78.80;99105.52;78158;1301;3052353;-70
2023/01/17 09:31:11;;;;;;;23.90;12.80;;;;;;;3.17;79.40;99106.88;79546;1301;3013936;-67
2023/01/17 09:33:40;;;;;;;25.20;12.50;;;;;;;3.24;79.15;99111.31;79509;1300;3011860;-66
2023/01/17 09:36:09;;;;;;;23.70;11.80;;;;;;;3.17;79.48;99105.33;78304;1295;3047959;-70
2023/01/17 09:38:36;;;;;;;16.60;8.80;;;;;;;3.18;79.78;99101.31;79721;1302;3015779;-67
2023/01/17 09:41:03;;;;;;;16.30;8.10;;;;;;;3.66;78.78;99097.27;79625;1296;3011644;-68
2023/01/17 09:43:44;;;;;;;19.40;10.30;;;;;;;4.28;76.33;99094.34;78304;1298;3052402;-68
2023/01/17 09:46:21;;;;;;;21.70;10.60;;;;;;;4.36;75.43;99086.88;78663;1295;3069564;-71
2023/01/17 09:49:00;;;;;;;19.00;10.40;;;;;;;4.29;75.58;99083.54;78404;1296;3051393;-67
2023/01/17 09:51:31;;;;;;;23.10;12.40;;;;;;;4.09;76.34;99078.27;78431;1298;3057187;-71
2023/01/17 09:53:59;;;;;;;26.40;12.20;;;;;;;4.00;77.17;99076.73;79687;1296;3013977;-67
2023/01/17 09:56:38;;;;;;;21.20;12.00;;;;;;;3.91;77.51;99078.30;79428;1296;3011631;-65
2023/01/17 09:59:27;;;;;;;23.90;11.60;;;;;;;3.93;77.72;99079.23;78165;1309;3053292;-69
2023/01/17 10:02:16;;;;;;;26.80;12.90;;;;;;;3.74;78.38;99079.48;78293;1298;3052205;-69
2023/01/17 10:04:50;;;;;;;24.70;12.00;;;;;;;3.69;79.02;99076.02;78384;1298;3069532;-63
2023/01/17 10:07:25;;;;;;;20.70;11.10;;;;;;;3.61;79.44;99076.69;79594;1298;3011711;-66
2023/01/17 10:10:19;;;;;;;24.00;11.60;;;;;;;3.60;79.80;99076.38;78257;1300;3057324;-63
2023/01/17 10:12:52;;;;;;;25.30;12.00;;;;;;;3.59;80.34;99075.91;80863;1294;3050123;-63
2023/01/17 10:15:30;;;;;;;17.00;8.10;;;;;;;3.59;80.49;99073.96;82106;1295;3011056;-64
2023/01/17 10:18:23;;;;;;;18.50;10.20;;;;;;;4.24;79.07;99075.77;80833;1295;3049655;-65
2023/01/17 10:21:20;;;;;;;18.60;9.00;;;;;;;5.04;76.74;99070.81;80848;1298;3053190;-65
2023/01/17 10:23:56;;;;;;;22.10;11.20;;;;;;;5.10;75.69;99073.00;80824;1295;3052652;-65
2023/01/17 10:26:24;;;;;;;21.50;11.50;;;;;;;4.90;75.88;99078.04;80819;1296;3067539;-65
2023/01/17 10:28:52;;;;;;;21.30;12.20;;;;;;;4.79;76.39;99073.98;82095;1298;3018612;-66
2023/01/17 10:31:23;;;;;;;25.20;12.80;;;;;;;4.64;77.17;99072.20;82086;1294;3011444;-64
2023/01/17 10:33:55;;;;;;;22.40;12.20;;;;;;;4.58;77.96;99065.50;80840;1296;3052714;-64
2023/01/17 10:36:26;;;;;;;25.10;13.80;;;;;;;4.52;78.37;99060.20;82096;1295;3011178;-65
2023/01/17 10:38:56;;;;;;;27.00;13.60;;;;;;;4.38;79.31;99060.98;80803;1298;3051748;-66
2023/01/17 10:41:34;;;;;;;24.70;13.50;;;;;;;4.38;79.73;99051.95;82030;1298;3011346;-64
2023/01/17 10:44:18;;;;;;;23.80;12.80;;;;;;;4.35;80.49;99047.21;80680;1296;3068010;-65
2023/01/17 10:46:50;;;;;;;27.90;13.20;;;;;;;4.41;80.36;99045.08;80797;1296;3052209;-66
2023/01/17 10:49:19;;;;;;;18.10;9.60;;;;;;;4.35;81.15;99043.39;81977;1296;3011131;-65
2023/01/17 10:51:59;;;;;;;18.70;10.10;;;;;;;4.85;80.14;99048.01;80760;1296;3047924;-66
2023/01/17 10:54:37;;;;;;;20.30;11.20;;;;;;;5.47;77.69;99050.66;80759;1296;3053125;-63
2023/01/17 10:57:11;;;;;;;21.60;11.80;;;;;;;5.61;76.77;99044.46;80836;1298;3049898;-64
2023/01/17 10:59:38;;;;;;;25.50;13.10;;;;;;;5.46;77.52;99040.09;82001;1301;3011256;-62
2023/01/17 11:02:18;;;;;;;30.80;13.70;;;;;;;5.33;77.80;99034.81;80857;1298;3052440;-65
2023/01/17 11:04:47;;;;;;;29.00;13.50;;;;;;;5.13;78.91;99032.93;80744;1295;3067872;-66
2023/01/17 11:07:21;;;;;;;25.40;13.30;;;;;;;5.03;79.69;99030.10;82113;1294;3012791;-65
2023/01/17 11:09:51;;;;;;;24.10;13.20;;;;;;;5.06;79.70;99021.95;80872;1296;3048555;-64
2023/01/17 11:12:31;;;;;;;25.50;13.50;;;;;;;4.97;80.13;99016.11;82130;1296;3011240;-67
2023/01/17 11:15:08;;;;;;;24.80;12.70;;;;;;;4.89;80.60;99017.33;80763;1295;3049677;-65
2023/01/17 11:17:40;;;;;;;24.80;12.80;;;;;;;4.85;81.23;99010.91;80859;1295;3052791;-64
2023/01/17 11:20:13;;;;;;;31.50;14.30;;;;;;;4.79;81.49;98999.88;81946;1298;3011233;-64
2023/01/17 11:22:58;;;;;;;20.10;10.40;;;;;;;4.77;81.92;98984.87;80864;1296;3069520;-63
2023/01/17 11:25:26;;;;;;;21.10;10.00;;;;;;;5.30;81.17;98983.20;80796;1295;3051479;-65
2023/01/17 11:28:01;;;;;;;21.20;10.20;;;;;;;5.82;78.77;98978.27;81993;1294;3013053;-65
2023/01/17 11:30:29;;;;;;;23.00;12.50;;;;;;;5.86;77.89;98970.42;80783;1296;3053286;-66
2023/01/17 11:33:04;;;;;;;25.00;13.20;;;;;;;5.71;78.26;98970.11;82020;1300;3012315;-69
2023/01/17 11:35:50;;;;;;;26.70;13.10;;;;;;;5.57;78.83;98972.56;80667;1300;3052359;-66
2023/01/17 11:38:20;;;;;;;25.60;13.20;;;;;;;5.36;79.47;98976.29;80868;1295;3069197;-68
2023/01/17 11:40:47;;;;;;;25.70;13.00;;;;;;;5.20;80.81;98978.77;82027;1295;3011413;-65
2023/01/17 11:43:26;;;;;;;25.70;14.00;;;;;;;5.20;80.95;98975.13;82098;1295;3011825;-66
2023/01/17 11:46:00;;;;;;;23.50;13.70;;;;;;;5.14;81.52;98981.48;80803;1296;3053628;-68
2023/01/17 11:48:33;;;;;;;30.50;15.00;;;;;;;5.03;82.05;98977.83;82073;1296;3011300;-66
2023/01/17 11:51:01;;;;;;;25.50;14.10;;;;;;;4.95;82.77;98972.60;80766;1295;3052544;-65
2023/01/17 11:53:29;;;;;;;16.70;8.90;;;;;;;5.09;82.70;98968.16;82125;1295;3012751;-63
2023/01/17 11:56:27;;;;;;;16.90;9.50;;;;;;;5.60;81.11;98974.14;81993;1295;3011260;-63
2023/01/17 11:59:20;;;;;;;23.00;11.10;;;;;;;6.28;78.84;98973.61;80866;1295;3056317;-66
2023/01/17 12:02:03;;;;;;;28.60;12.60;;;;;;;6.37;78.04;98976.27;80827;1295;3049931;-66
2023/01/17 12:04:46;;;;;;;26.70;13.90;;;;;;;6.07;78.59;98970.80;80658;1295;3053408;-65
2023/01/17 12:07:37;;;;;;;21.60;11.40;;;;;;;5.73;79.75;98969.33;80723;1296;3050013;-65
2023/01/17 12:10:14;;;;;;;25.80;13.60;;;;;;;5.57;81.09;98963.85;80833;1298;3052210;-66
2023/01/17 12:19:04;;;;;;;25.20;13.60;;;;;;;5.17;83.34;98958.77;80752;1295;3051378;-66
2023/01/17 12:21:33;;;;;;;24.50;10.20;;;;;;;5.23;83.82;98957.77;80855;1295;3057220;-64
2023/01/17 12:24:14;;;;;;;21.80;10.60;;;;;;;5.70;82.55;98956.27;82111;1295;3013170;-65
2023/01/17 12:26:49;;;;;;;20.70;11.30;;;;;;;6.25;79.98;98957.95;80818;1298;3050794;-64
2023/01/17 12:29:21;;;;;;;23.40;12.30;;;;;;;6.22;79.66;98961.91;81442;1295;3011607;-63
2023/01/17 12:32:20;;;;;;;27.50;13.20;;;;;;;6.12;79.88;98956.51;82117;1293;3011293;-62
2023/01/17 12:34:51;;;;;;;23.70;13.20;;;;;;;5.99;80.80;98957.16;80741;1295;3051721;-65
2023/01/17 12:37:24;;;;;;;26.00;14.50;;;;;;;5.92;81.44;98961.10;81936;1298;3011434;-63
2023/01/17 12:39:57;;;;;;;25.10;13.90;;;;;;;5.86;81.97;98966.10;80692;1294;3051994;-63
2023/01/17 12:42:26;;;;;;;24.50;14.50;;;;;;;5.78;82.53;98963.02;82002;1295;3011438;-65
2023/01/17 12:45:10;;;;;;;29.30;16.10;;;;;;;5.72;83.16;98963.83;80739;1295;3048477;-65
2023/01/17 12:47:43;;;;;;;17.20;10.30;;;;;;;5.66;83.93;98954.55;80733;1295;3053664;-65
2023/01/17 12:50:25;;;;;;;22.70;10.10;;;;;;;6.21;82.39;98946.80;81928;1301;3011218;-63
2023/01/17 12:53:11;;;;;;;21.40;12.60;;;;;;;6.58;80.63;98946.85;80646;1298;3052050;-63
2023/01/17 12:55:59;;;;;;;22.70;13.10;;;;;;;6.78;79.84;98963.87;80827;1296;3052086;-63
2023/01/17 12:58:32;;;;;;;24.80;13.10;;;;;;;6.58;80.38;98970.32;80866;1293;3068891;-66
2023/01/17 13:01:05;;;;;;;23.30;13.80;;;;;;;6.39;81.05;98954.42;81950;1296;3011437;-66
2023/01/17 13:04:05;;;;;;;27.40;14.30;;;;;;;6.18;81.95;98951.17;80751;1295;3056283;-64
2023/01/17 13:06:44;;;;;;;24.10;13.50;;;;;;;5.89;83.32;98951.52;80744;1295;3049645;-65
2023/01/17 13:09:14;;;;;;;29.40;15.20;;;;;;;5.80;84.25;98955.44;80664;1296;3052586;-65
2023/01/17 13:11:45;;;;;;;36.40;19.40;;;;;;;5.74;84.41;98964.95;81892;1297;3012496;-63
2023/01/17 13:14:13;;;;;;;21.00;11.50;;;;;;;5.63;85.12;98966.69;80745;1298;3050786;-66
2023/01/17 13:17:04;;;;;;;23.40;10.90;;;;;;;6.07;84.68;98971.85;82149;1295;3018370;-66
2023/01/17 13:19:35;;;;;;;24.60;13.10;;;;;;;6.83;81.18;98972.86;80753;1295;3057187;-64
2023/01/17 13:22:03;;;;;;;24.30;13.60;;;;;;;6.82;80.50;98964.39;82110;1295;3011468;-64
2023/01/17 13:24:34;;;;;;;23.60;14.20;;;;;;;6.88;80.18;98971.52;80741;1295;3052275;-64
2023/01/17 13:27:21;;;;;;;28.90;14.90;;;;;;;6.53;81.09;98977.75;82007;1295;3013282;-67
2023/01/17 13:30:20;;;;;;;27.50;14.70;;;;;;;6.14;83.02;98977.29;80718;1297;3051713;-65
2023/01/17 13:33:11;;;;;;;26.10;15.40;;;;;;;6.01;83.98;98978.56;80803;1295;3053327;-66
2023/01/17 13:35:45;;;;;;;28.20;14.70;;;;;;;5.78;85.11;98969.79;80743;1295;3067614;-64
2023/01/17 13:38:33;;;;;;;17.30;10.40;;;;;;;5.86;85.11;98961.59;81968;1295;3011210;-66
2023/01/17 13:41:01;;;;;;;17.30;8.70;;;;;;;6.46;83.71;98960.34;80866;1294;3057745;-63
2023/01/17 13:43:30;;;;;;;20.60;11.70;;;;;;;6.90;81.34;98967.30;82120;1295;3018580;-64
2023/01/17 13:45:58;;;;;;;22.80;11.90;;;;;;;7.01;80.62;98971.04;81934;1298;3011477;-66
2023/01/17 13:48:33;;;;;;;26.40;15.10;;;;;;;6.77;80.96;98978.77;80781;1296;3051598;-65